createdAt,value
2023-04-25T00:00:53.345Z,11.40
2023-04-25T00:03:20.346Z,11.50
2023-04-25T00:05:47.223Z,11.40
2023-04-25T00:08:13.914Z,11.30
2023-04-25T00:10:40.579Z,11.30
2023-04-25T00:13:07.210Z,11.30
2023-04-25T00:15:33.822Z,11.20
2023-04-25T00:18:00.554Z,11.20
2023-04-25T00:20:27.227Z,11.30
2023-04-25T00:22:54.403Z,11.30
2023-04-25T00:25:21.104Z,11.20
2023-04-25T00:27:47.829Z,11.30
2023-04-25T00:30:14.992Z,11.40
2023-04-25T00:32:41.624Z,11.40
2023-04-25T00:35:08.464Z,11.30
2023-04-25T00:37:35.147Z,11.30
2023-04-25T00:40:01.740Z,11.30
2023-04-25T00:42:29.172Z,11.40
2023-04-25T00:44:56.309Z,11.30
2023-04-25T00:47:23.638Z,11.40
2023-04-25T00:49:50.455Z,11.40
2023-04-25T00:52:17.115Z,11.50
2023-04-25T00:54:44.067Z,11.50
2023-04-25T00:57:11.631Z,11.40
2023-04-25T00:59:38.570Z,11.20
2023-04-25T01:02:05.799Z,11.10
2023-04-25T01:04:32.427Z,11.10
2023-04-25T01:06:59.040Z,11.20
2023-04-25T01:09:25.815Z,11.20
2023-04-25T01:11:53.528Z,11.20
2023-04-25T01:14:20.231Z,11.20
2023-04-25T01:16:46.939Z,11.20
2023-04-25T01:19:17.375Z,11.20
2023-04-25T01:21:44.047Z,11.10
2023-04-25T01:24:10.709Z,11.10
2023-04-25T01:26:37.496Z,11.10
2023-04-25T01:29:07.376Z,11.10
2023-04-25T01:31:34.935Z,11.20
2023-04-25T01:34:01.871Z,11.30
2023-04-25T01:36:28.999Z,11.20
2023-04-25T01:38:56.131Z,11.20
2023-04-25T01:43:51.006Z,11.10
2023-04-25T01:46:17.876Z,10.90
2023-04-25T01:48:44.713Z,10.90
2023-04-25T01:51:12.558Z,10.90
2023-04-25T01:53:39.428Z,11.00
2023-04-25T01:56:06.654Z,10.90
2023-04-25T01:58:33.275Z,10.90
2023-04-25T02:00:59.942Z,10.90
2023-04-25T02:03:26.740Z,11.00
2023-04-25T02:05:53.380Z,11.00
2023-04-25T02:08:19.987Z,11.00
2023-04-25T02:10:46.604Z,11.00
2023-04-25T02:13:13.202Z,11.00
2023-04-25T02:15:39.818Z,11.10
2023-04-25T02:18:07.378Z,11.10
2023-04-25T02:20:34.090Z,10.90
2023-04-25T02:23:00.724Z,11.00
2023-04-25T02:25:27.422Z,10.90
2023-04-25T02:27:54.722Z,10.80
2023-04-25T02:30:21.354Z,10.80
2023-04-25T02:32:48.211Z,10.90
2023-04-25T02:35:16.675Z,10.90
2023-04-25T02:37:43.301Z,10.90
2023-04-25T02:40:10.128Z,10.90
2023-04-25T02:42:36.973Z,10.80
2023-04-25T02:45:03.936Z,10.80
2023-04-25T02:47:30.772Z,10.90
2023-04-25T02:49:57.562Z,11.00
2023-04-25T02:52:24.126Z,11.00
2023-04-25T02:54:50.753Z,11.00
2023-04-25T02:57:17.388Z,10.90
2023-04-25T02:59:44.053Z,10.90
2023-04-25T03:02:10.742Z,10.90
2023-04-25T03:04:37.575Z,10.80
2023-04-25T03:07:04.581Z,10.80
2023-04-25T03:09:31.154Z,10.70
2023-04-25T03:11:57.927Z,10.80
2023-04-25T03:14:24.510Z,10.80
2023-04-25T03:16:51.122Z,10.70
2023-04-25T03:19:17.968Z,10.70
2023-04-25T03:21:45.005Z,10.70
2023-04-25T03:24:12.798Z,10.70
2023-04-25T03:26:39.440Z,10.70
2023-04-25T03:29:06.302Z,10.80
2023-04-25T03:31:33.016Z,10.80
2023-04-25T03:33:59.634Z,10.90
2023-04-25T03:36:26.288Z,10.90
2023-04-25T03:38:52.885Z,10.80
2023-04-25T03:41:19.522Z,10.70
2023-04-25T03:43:46.173Z,10.70
2023-04-25T03:46:12.838Z,10.70
2023-04-25T03:48:39.558Z,10.70
2023-04-25T03:51:06.163Z,10.80
2023-04-25T03:53:32.748Z,10.70
2023-04-25T03:55:59.389Z,10.60
2023-04-25T03:58:25.964Z,10.70
2023-04-25T04:00:52.515Z,10.70
2023-04-25T04:03:19.272Z,10.70
2023-04-25T04:05:46.224Z,10.70
2023-04-25T04:08:13.121Z,10.80
2023-04-25T04:10:39.882Z,10.70
2023-04-25T04:13:06.510Z,10.70
2023-04-25T04:15:34.182Z,10.60
2023-04-25T04:18:03.890Z,10.60
2023-04-25T04:20:31.452Z,10.60
2023-04-25T04:22:58.224Z,10.70
2023-04-25T04:25:25.540Z,10.80
2023-04-25T04:27:55.760Z,10.80
2023-04-25T04:30:25.054Z,10.90
2023-04-25T04:32:52.229Z,10.70
2023-04-25T04:35:18.814Z,10.80
2023-04-25T04:37:46.733Z,10.70
2023-04-25T04:40:16.207Z,10.60
2023-04-25T04:42:43.417Z,10.60
2023-04-25T04:45:11.098Z,10.80
2023-04-25T04:47:38.209Z,10.80
2023-04-25T04:50:05.132Z,10.90
2023-04-25T04:52:31.824Z,11.00
2023-04-25T04:54:58.464Z,10.90
2023-04-25T04:57:25.076Z,11.00
2023-04-25T04:59:52.446Z,11.00
2023-04-25T05:02:19.122Z,11.00
2023-04-25T05:04:46.080Z,11.10
2023-04-25T05:07:12.704Z,11.20
2023-04-25T05:09:39.342Z,11.10
2023-04-25T05:12:06.206Z,11.00
2023-04-25T05:14:32.780Z,11.10
2023-04-25T05:16:59.489Z,11.00
2023-04-25T05:19:26.336Z,11.10
2023-04-25T05:21:53.093Z,11.00
2023-04-25T05:24:19.684Z,10.90
2023-04-25T05:26:46.309Z,11.00
2023-04-25T05:29:12.928Z,11.10
2023-04-25T05:31:39.513Z,11.10
2023-04-25T05:34:06.097Z,11.00
2023-04-25T05:36:33.443Z,11.10
2023-04-25T05:39:00.012Z,10.90
2023-04-25T05:41:26.652Z,10.90
2023-04-25T05:43:55.430Z,10.90
2023-04-25T05:46:23.963Z,10.80
2023-04-25T05:48:50.593Z,10.80
2023-04-25T05:51:19.322Z,10.80
2023-04-25T05:53:46.208Z,10.80
2023-04-25T05:56:12.800Z,10.80
2023-04-25T05:58:39.676Z,10.90
2023-04-25T06:01:06.443Z,11.00
2023-04-25T06:03:33.109Z,11.10
2023-04-25T06:05:59.989Z,11.00
2023-04-25T06:08:26.755Z,11.00
2023-04-25T06:10:53.444Z,11.00
2023-04-25T06:13:20.055Z,11.00
2023-04-25T06:15:46.653Z,11.10
2023-04-25T06:18:13.287Z,11.10
2023-04-25T06:20:39.928Z,11.10
2023-04-25T06:23:06.565Z,11.20
2023-04-25T06:25:33.156Z,11.20
2023-04-25T06:27:59.805Z,11.00
2023-04-25T06:30:26.844Z,11.10
2023-04-25T06:32:54.179Z,11.10
2023-04-25T06:35:21.754Z,11.20
2023-04-25T06:37:48.427Z,11.30
2023-04-25T06:40:15.840Z,11.20
2023-04-25T06:42:42.509Z,11.00
2023-04-25T06:45:09.292Z,10.90
2023-04-25T06:47:35.988Z,11.10
2023-04-25T06:50:02.722Z,11.30
2023-04-25T06:52:29.347Z,11.10
2023-04-25T06:54:55.967Z,11.10
2023-04-25T06:57:22.574Z,11.10
2023-04-25T06:59:49.172Z,11.20
2023-04-25T07:02:15.928Z,11.20
2023-04-25T07:04:42.640Z,11.20
2023-04-25T07:07:09.499Z,11.20
2023-04-25T07:09:36.277Z,11.20
2023-04-25T07:12:03.510Z,11.30
2023-04-25T07:14:30.092Z,11.20
2023-04-25T07:16:57.925Z,11.20
2023-04-25T07:19:27.900Z,11.20
2023-04-25T07:21:54.685Z,11.30
2023-04-25T07:24:21.353Z,11.20
2023-04-25T07:26:48.040Z,11.40
2023-04-25T07:29:18.509Z,11.50
2023-04-25T07:31:45.183Z,11.60
2023-04-25T07:34:11.889Z,11.70
2023-04-25T07:36:38.467Z,11.50
2023-04-25T07:39:05.221Z,11.50
2023-04-25T07:41:31.836Z,11.60
2023-04-25T07:43:58.489Z,11.40
2023-04-25T07:46:25.274Z,11.50
2023-04-25T07:48:52.101Z,11.60
2023-04-25T07:51:20.830Z,11.60
2023-04-25T07:53:50.162Z,11.70
2023-04-25T07:56:17.221Z,11.80
2023-04-25T07:58:43.906Z,11.70
2023-04-25T08:01:10.678Z,11.70
2023-04-25T08:03:37.616Z,11.70
2023-04-25T08:06:07.725Z,11.80
2023-04-25T08:08:34.878Z,11.90
2023-04-25T08:11:01.509Z,11.80
2023-04-25T08:13:28.110Z,11.80
2023-04-25T08:15:54.815Z,11.80
2023-04-25T08:18:21.555Z,11.80
2023-04-25T08:20:48.217Z,12.00
2023-04-25T08:23:15.257Z,11.90
2023-04-25T08:25:41.895Z,12.00
2023-04-25T08:28:08.475Z,12.10
2023-04-25T08:30:35.347Z,12.30
2023-04-25T08:33:02.397Z,12.40
2023-04-25T08:35:29.605Z,12.30
2023-04-25T08:37:56.381Z,12.40
2023-04-25T08:40:27.077Z,12.30
2023-04-25T08:42:53.999Z,12.40
2023-04-25T08:45:21.165Z,12.60
2023-04-25T08:47:49.791Z,12.70
2023-04-25T08:50:17.760Z,12.90
2023-04-25T08:52:46.835Z,12.80
2023-04-25T08:55:14.233Z,12.80
2023-04-25T08:57:44.086Z,13.00
2023-04-25T09:00:11.882Z,13.10
2023-04-25T09:02:39.786Z,13.50
2023-04-25T09:05:07.556Z,13.60
2023-04-25T09:07:34.297Z,13.60
2023-04-25T09:10:02.861Z,13.70
2023-04-25T09:12:29.938Z,13.80
2023-04-25T09:15:06.906Z,14.10
2023-04-25T09:17:33.612Z,14.20
2023-04-25T09:20:13.747Z,14.10
2023-04-25T09:22:40.606Z,14.10
2023-04-25T09:25:11.421Z,13.90
2023-04-25T09:27:49.701Z,13.90
2023-04-25T09:30:17.060Z,13.80
2023-04-25T09:32:44.425Z,13.60
2023-04-25T09:35:12.417Z,13.50
2023-04-25T09:37:41.480Z,13.30
2023-04-25T09:40:08.859Z,13.30
2023-04-25T09:42:36.372Z,13.30
2023-04-25T09:45:04.632Z,13.30
2023-04-25T09:47:31.906Z,13.40
2023-04-25T09:49:59.383Z,13.40
2023-04-25T09:52:26.446Z,13.80
2023-04-25T09:54:53.686Z,13.80
2023-04-25T09:57:25.447Z,14.00
2023-04-25T09:59:55.839Z,13.70
2023-04-25T10:02:23.790Z,13.70
2023-04-25T10:04:53.608Z,14.40
2023-04-25T10:07:22.375Z,15.10
2023-04-25T10:09:51.226Z,14.60
2023-04-25T10:12:18.088Z,14.30
2023-04-25T10:14:45.170Z,13.90
2023-04-25T10:17:15.252Z,13.70
2023-04-25T10:19:41.982Z,13.60
2023-04-25T10:22:09.795Z,13.50
2023-04-25T10:24:37.967Z,13.30
2023-04-25T10:27:05.289Z,13.30
2023-04-25T10:29:31.907Z,13.40
2023-04-25T10:31:58.539Z,13.60
2023-04-25T10:34:26.978Z,13.70
2023-04-25T10:36:53.905Z,13.70
2023-04-25T10:39:24.628Z,13.70
2023-04-25T10:41:56.156Z,13.60
2023-04-25T10:44:23.002Z,13.60
2023-04-25T10:46:49.680Z,13.70
2023-04-25T10:49:35.294Z,13.60
2023-04-25T10:52:22.229Z,13.60
2023-04-25T10:54:54.853Z,14.50
2023-04-25T10:57:40.113Z,14.80
2023-04-25T11:00:11.954Z,14.50
2023-04-25T11:02:48.942Z,14.20
2023-04-25T11:05:21.443Z,13.80
2023-04-25T11:08:06.465Z,13.40
2023-04-25T11:10:36.311Z,13.20
2023-04-25T11:13:03.274Z,13.30
2023-04-25T11:15:30.016Z,13.30
2023-04-25T11:17:56.621Z,13.10
2023-04-25T11:20:23.549Z,13.10
2023-04-25T11:22:51.647Z,13.20
2023-04-25T11:25:19.369Z,13.20
2023-04-25T11:27:52.742Z,13.20
2023-04-25T11:30:19.799Z,13.20
2023-04-25T11:32:46.593Z,13.10
2023-04-25T11:35:13.774Z,13.10
2023-04-25T11:37:41.432Z,13.10
2023-04-25T11:40:09.750Z,13.30
2023-04-25T11:42:40.577Z,13.40
2023-04-25T11:45:07.339Z,13.40
2023-04-25T11:47:34.354Z,13.50
2023-04-25T11:50:01.611Z,13.50
2023-04-25T11:52:44.298Z,13.50
2023-04-25T11:55:13.783Z,13.70
2023-04-25T11:57:41.073Z,13.90
2023-04-25T12:00:08.298Z,14.10
2023-04-25T12:02:38.597Z,14.00
2023-04-25T12:05:22.177Z,13.70
2023-04-25T12:07:56.191Z,13.50
2023-04-25T12:10:22.894Z,13.40
2023-04-25T12:12:49.546Z,13.30
2023-04-25T12:15:24.046Z,13.40
2023-04-25T12:17:51.720Z,13.50
2023-04-25T12:20:20.651Z,13.60
2023-04-25T12:22:48.859Z,14.30
2023-04-25T12:25:35.491Z,14.40
2023-04-25T12:28:21.184Z,14.10
2023-04-25T12:30:58.517Z,13.70
2023-04-25T12:33:26.040Z,13.60
2023-04-25T12:35:53.516Z,13.50
2023-04-25T12:38:23.913Z,13.30
2023-04-25T12:40:50.519Z,13.30
2023-04-25T12:43:17.178Z,13.30
2023-04-25T12:45:43.815Z,13.30
2023-04-25T12:48:10.974Z,13.30
2023-04-25T12:50:37.811Z,13.10
2023-04-25T12:53:04.878Z,13.10
2023-04-25T12:55:31.590Z,13.10
2023-04-25T12:57:58.158Z,13.30
2023-04-25T13:00:25.688Z,13.40
2023-04-25T13:02:52.576Z,14.10
2023-04-25T13:05:19.322Z,14.80
2023-04-25T13:07:46.023Z,15.70
2023-04-25T13:10:12.696Z,16.80
2023-04-25T13:12:39.297Z,16.90
2023-04-25T13:15:06.247Z,16.40
2023-04-25T13:17:32.886Z,15.70
2023-04-25T13:19:59.488Z,15.30
2023-04-25T13:22:26.136Z,15.00
2023-04-25T13:24:52.704Z,14.70
2023-04-25T13:27:19.508Z,14.50
2023-04-25T13:29:46.131Z,14.50
2023-04-25T13:32:12.826Z,14.20
2023-04-25T13:34:39.458Z,13.90
2023-04-25T13:37:06.028Z,13.70
2023-04-25T13:39:32.941Z,13.60
2023-04-25T13:41:59.623Z,13.50
2023-04-25T13:44:26.293Z,13.70
2023-04-25T13:46:53.076Z,14.10
2023-04-25T13:49:19.759Z,14.50
2023-04-25T13:51:46.385Z,14.60
2023-04-25T13:54:13.012Z,14.70
2023-04-25T13:56:39.686Z,14.80
2023-04-25T13:59:06.361Z,14.60
2023-04-25T14:01:35.297Z,14.60
2023-04-25T14:04:05.681Z,14.40
2023-04-25T14:06:32.986Z,14.20
2023-04-25T14:09:01.889Z,14.00
2023-04-25T14:11:28.514Z,13.80
2023-04-25T14:13:55.410Z,13.70
2023-04-25T14:16:22.171Z,13.50
2023-04-25T14:18:48.827Z,13.50
2023-04-25T14:21:15.634Z,13.50
2023-04-25T14:23:42.376Z,13.50
2023-04-25T14:26:12.953Z,13.30
2023-04-25T14:28:39.586Z,13.30
2023-04-25T14:31:06.340Z,13.50
2023-04-25T14:33:32.976Z,13.70
2023-04-25T14:35:59.569Z,14.00
2023-04-25T14:38:26.621Z,13.70
2023-04-25T14:40:55.009Z,13.60
2023-04-25T14:43:21.697Z,13.50
2023-04-25T14:45:48.284Z,13.30
2023-04-25T14:48:15.896Z,13.00
2023-04-25T14:50:42.618Z,12.90
2023-04-25T14:53:09.204Z,12.80
2023-04-25T14:55:36.013Z,12.70
2023-04-25T14:58:02.991Z,12.80
2023-04-25T15:00:31.388Z,12.80
2023-04-25T15:02:58.962Z,12.90
2023-04-25T15:05:26.376Z,12.80
2023-04-25T15:07:53.129Z,12.70
2023-04-25T15:10:20.379Z,12.50
2023-04-25T15:12:47.978Z,12.40
2023-04-25T15:15:22.786Z,12.40
2023-04-25T15:17:53.145Z,12.60
2023-04-25T15:20:19.799Z,12.70
2023-04-25T15:22:46.893Z,13.00
2023-04-25T15:25:13.572Z,13.20
2023-04-25T15:27:44.696Z,13.20
2023-04-25T15:30:13.453Z,13.10
2023-04-25T15:32:40.421Z,13.30
2023-04-25T15:35:07.701Z,13.50
2023-04-25T15:37:37.473Z,13.60
2023-04-25T15:40:12.108Z,13.80
2023-04-25T15:42:48.474Z,13.70
2023-04-25T15:45:17.456Z,13.50
2023-04-25T15:47:44.279Z,13.20
2023-04-25T15:50:11.455Z,13.10
2023-04-25T15:52:39.070Z,13.10
2023-04-25T15:55:06.366Z,13.10
2023-04-25T15:57:33.463Z,13.00
2023-04-25T16:00:00.230Z,13.00
2023-04-25T16:02:27.051Z,13.00
2023-04-25T16:04:53.809Z,12.80
2023-04-25T16:07:20.773Z,12.70
2023-04-25T16:09:47.387Z,12.80
2023-04-25T16:12:13.950Z,12.70
2023-04-25T16:14:40.580Z,12.50
2023-04-25T16:17:07.173Z,12.40
2023-04-25T16:19:33.843Z,12.40
2023-04-25T16:22:01.626Z,12.20
2023-04-25T16:24:28.236Z,12.10
2023-04-25T16:26:54.900Z,12.00
2023-04-25T16:29:21.484Z,11.90
2023-04-25T16:31:48.526Z,11.90
2023-04-25T16:34:15.429Z,11.80
2023-04-25T16:36:42.225Z,11.70
2023-04-25T16:39:09.639Z,11.80
2023-04-25T16:41:36.928Z,11.90
2023-04-25T16:44:03.483Z,11.90
2023-04-25T16:46:30.211Z,12.00
2023-04-25T16:48:56.849Z,12.00
2023-04-25T16:51:23.476Z,12.10
2023-04-25T16:53:50.165Z,12.10
2023-04-25T16:56:17.001Z,12.30
2023-04-25T16:58:44.089Z,12.10
2023-04-25T17:01:11.343Z,12.10
2023-04-25T17:03:38.152Z,12.00
2023-04-25T17:06:05.236Z,12.00
2023-04-25T17:08:31.816Z,11.90
2023-04-25T17:10:59.849Z,12.00
2023-04-25T17:13:30.955Z,11.80
2023-04-25T17:15:58.179Z,11.70
2023-04-25T17:18:24.962Z,11.70
2023-04-25T17:20:52.345Z,11.80
2023-04-25T17:23:19.202Z,11.70
2023-04-25T17:25:45.915Z,11.60
2023-04-25T17:28:13.071Z,11.60
2023-04-25T17:30:40.180Z,11.70
2023-04-25T17:33:07.052Z,11.60
2023-04-25T17:35:33.867Z,11.50
2023-04-25T17:38:00.543Z,11.50
2023-04-25T17:40:27.136Z,11.50
2023-04-25T17:42:53.730Z,11.50
2023-04-25T17:45:20.352Z,11.40
2023-04-25T17:47:46.960Z,11.30
2023-04-25T17:50:16.521Z,11.40
2023-04-25T17:52:44.952Z,11.30
2023-04-25T17:55:11.602Z,11.30
2023-04-25T17:57:38.248Z,11.30
2023-04-25T18:00:07.768Z,11.30
2023-04-25T18:02:36.397Z,11.30
2023-04-25T18:05:09.129Z,11.30
2023-04-25T18:07:36.653Z,11.30
2023-04-25T18:10:06.878Z,11.40
2023-04-25T18:12:34.115Z,11.30
2023-04-25T18:15:01.778Z,11.30
2023-04-25T18:17:28.518Z,11.30
2023-04-25T18:19:55.437Z,11.30
2023-04-25T18:22:22.341Z,11.30
2023-04-25T18:24:50.272Z,11.10
2023-04-25T18:27:17.310Z,11.00
2023-04-25T18:29:45.358Z,10.90
2023-04-25T18:32:12.509Z,10.90
2023-04-25T18:34:43.393Z,11.00
2023-04-25T18:37:11.794Z,11.10
2023-04-25T18:39:38.353Z,11.00
2023-04-25T18:42:06.911Z,10.90
2023-04-25T18:44:36.547Z,10.90
2023-04-25T18:47:03.282Z,11.00
2023-04-25T18:49:29.876Z,11.10
2023-04-25T18:51:57.405Z,11.10
2023-04-25T18:54:24.214Z,11.10
2023-04-25T18:56:51.277Z,11.00
2023-04-25T18:59:18.220Z,10.80
2023-04-25T19:01:44.835Z,10.70
2023-04-25T19:04:11.619Z,10.70
2023-04-25T19:06:38.353Z,10.80
2023-04-25T19:09:05.071Z,10.90
2023-04-25T19:11:31.632Z,10.90
2023-04-25T19:13:58.318Z,10.80
2023-04-25T19:16:26.284Z,10.70
2023-04-25T19:18:56.755Z,10.60
2023-04-25T19:21:23.603Z,10.70
2023-04-25T19:23:52.646Z,10.60
2023-04-25T19:26:19.625Z,10.60
2023-04-25T19:28:46.242Z,10.70
2023-04-25T19:31:13.044Z,10.80
2023-04-25T19:33:39.714Z,10.70
2023-04-25T19:36:06.897Z,10.60
2023-04-25T19:38:33.498Z,10.70
2023-04-25T19:41:00.162Z,10.70
2023-04-25T19:43:26.876Z,10.60
2023-04-25T19:45:53.659Z,10.50
2023-04-25T19:48:21.111Z,10.30
2023-04-25T19:50:47.787Z,10.20
2023-04-25T19:53:14.377Z,10.20
2023-04-25T19:55:41.223Z,10.30
2023-04-25T19:58:08.076Z,10.40
2023-04-25T20:00:34.950Z,10.30
2023-04-25T20:03:02.033Z,10.10
2023-04-25T20:05:28.717Z,10.00
2023-04-25T20:07:55.349Z,10.00
2023-04-25T20:10:22.257Z,10.10
2023-04-25T20:12:49.337Z,10.00
2023-04-25T20:15:17.131Z,9.90
2023-04-25T20:17:43.925Z,10.00
2023-04-25T20:20:11.324Z,9.90
2023-04-25T20:22:40.240Z,9.90
2023-04-25T20:25:08.239Z,10.00
2023-04-25T20:27:34.917Z,9.80
2023-04-25T20:30:03.431Z,9.90
2023-04-25T20:32:32.144Z,9.90
2023-04-25T20:34:58.761Z,9.80
2023-04-25T20:37:25.424Z,9.90
2023-04-25T20:39:52.119Z,9.90
2023-04-25T20:42:19.552Z,9.80
2023-04-25T20:47:40.777Z,9.90
2023-04-25T20:50:07.899Z,9.80
2023-04-25T20:52:35.398Z,9.80
2023-04-25T20:55:11.974Z,9.90
2023-04-25T20:57:38.678Z,9.90
2023-04-25T21:00:16.914Z,10.00
2023-04-25T21:02:43.811Z,10.10
2023-04-25T21:05:10.813Z,10.10
2023-04-25T21:07:38.132Z,10.00
2023-04-25T21:10:04.933Z,10.00
2023-04-25T21:12:31.612Z,10.00
2023-04-25T21:15:00.317Z,9.80
2023-04-25T21:17:27.371Z,9.60
2023-04-25T21:19:54.110Z,9.70
2023-04-25T21:22:21.528Z,9.60
2023-04-25T21:24:50.652Z,9.60
2023-04-25T21:27:20.090Z,9.50
2023-04-25T21:29:47.170Z,9.30
2023-04-25T21:32:16.828Z,9.30
2023-04-25T21:34:43.629Z,9.30
2023-04-25T21:37:10.575Z,9.40
2023-04-25T21:39:37.282Z,9.50
2023-04-25T21:42:07.218Z,9.50
2023-04-25T21:44:33.927Z,9.60
2023-04-25T21:47:00.655Z,9.50
2023-04-25T21:49:29.500Z,9.30
2023-04-25T21:51:56.721Z,9.00
2023-04-25T21:54:23.283Z,9.00
2023-04-25T21:56:49.888Z,9.20
2023-04-25T21:59:16.572Z,9.10
2023-04-25T22:01:43.493Z,9.10
2023-04-25T22:04:10.428Z,9.00
2023-04-25T22:06:37.320Z,9.00
2023-04-25T22:09:04.781Z,9.20
2023-04-25T22:11:31.880Z,9.20
2023-04-25T22:13:58.552Z,9.00
2023-04-25T22:16:25.212Z,8.80
2023-04-25T22:18:53.483Z,8.80
2023-04-25T22:21:20.638Z,8.90
2023-04-25T22:23:47.257Z,8.70
2023-04-25T22:26:14.341Z,8.80
2023-04-25T22:28:41.305Z,8.90
2023-04-25T22:31:08.414Z,9.00
2023-04-25T22:33:35.154Z,9.10
2023-04-25T22:36:02.017Z,9.10
2023-04-25T22:38:28.938Z,8.90
2023-04-25T22:40:55.628Z,9.00
2023-04-25T22:43:22.181Z,8.90
2023-04-25T22:45:49.275Z,8.80
2023-04-25T22:48:15.889Z,8.70
2023-04-25T22:50:42.541Z,8.50
2023-04-25T22:53:10.223Z,8.50
2023-04-25T22:55:36.923Z,8.40
2023-04-25T22:58:09.988Z,8.30
2023-04-25T23:00:37.482Z,8.20
2023-04-25T23:03:04.741Z,8.10
2023-04-25T23:05:32.708Z,8.20
2023-04-25T23:07:59.401Z,8.20
2023-04-25T23:10:27.978Z,8.10
2023-04-25T23:12:57.291Z,8.10
2023-04-25T23:15:25.688Z,8.20
2023-04-25T23:17:52.385Z,8.00
2023-04-25T23:20:19.041Z,7.90
2023-04-25T23:22:45.604Z,7.90
2023-04-25T23:25:12.768Z,8.00
2023-04-25T23:27:39.363Z,8.20
2023-04-25T23:30:06.377Z,8.20
2023-04-25T23:32:33.295Z,8.20
2023-04-25T23:34:59.917Z,8.30
2023-04-25T23:37:26.517Z,8.20
2023-04-25T23:39:53.195Z,8.10
2023-04-25T23:42:19.855Z,8.00
2023-04-25T23:44:46.566Z,8.10
2023-04-25T23:47:14.255Z,8.00
2023-04-25T23:49:41.150Z,8.00
2023-04-25T23:52:07.891Z,7.90
2023-04-25T23:54:34.582Z,7.90
2023-04-25T23:57:01.348Z,7.90
2023-04-25T23:59:28.594Z,8.00
